sensor_id;sensor_type;location;lat;lon;timestamp;P1;durP1;ratioP1;P2;durP2;ratioP2
56399;SDS011;42298;53.638;9.876;2024-03-02T00:00:50;23.35;;;15.13;;
56399;SDS011;42298;53.638;9.876;2024-03-02T00:03:16;23.45;;;16.48;;
56399;SDS011;42298;53.638;9.876;2024-03-02T00:05:42;25.10;;;15.52;;
56399;SDS011;42298;53.638;9.876;2024-03-02T00:08:08;23.77;;;16.60;;
56399;SDS011;42298;53.638;9.876;2024-03-02T00:10:38;23.20;;;15.18;;
56399;SDS011;42298;53.638;9.876;2024-03-02T00:13:07;22.90;;;16.52;;
56399;SDS011;42298;53.638;9.876;2024-03-02T00:15:38;24.17;;;16.58;;
56399;SDS011;42298;53.638;9.876;2024-03-02T00:18:05;23.65;;;16.92;;
56399;SDS011;42298;53.638;9.876;2024-03-02T00:20:31;25.27;;;16.50;;
56399;SDS011;42298;53.638;9.876;2024-03-02T00:23:03;24.75;;;17.05;;
56399;SDS011;42298;53.638;9.876;2024-03-02T00:25:39;23.90;;;17.73;;
56399;SDS011;42298;53.638;9.876;2024-03-02T00:28:30;25.63;;;17.25;;
56399;SDS011;42298;53.638;9.876;2024-03-02T00:31:06;25.73;;;17.05;;
56399;SDS011;42298;53.638;9.876;2024-03-02T00:33:34;25.30;;;18.23;;
56399;SDS011;42298;53.638;9.876;2024-03-02T00:36:01;23.38;;;16.40;;
56399;SDS011;42298;53.638;9.876;2024-03-02T00:38:28;24.55;;;17.13;;
56399;SDS011;42298;53.638;9.876;2024-03-02T00:40:54;23.98;;;17.35;;
56399;SDS011;42298;53.638;9.876;2024-03-02T00:45:53;23.77;;;16.95;;
56399;SDS011;42298;53.638;9.876;2024-03-02T00:48:19;22.30;;;16.40;;
56399;SDS011;42298;53.638;9.876;2024-03-02T00:50:44;21.95;;;15.57;;
56399;SDS011;42298;53.638;9.876;2024-03-02T00:53:11;25.65;;;17.60;;
56399;SDS011;42298;53.638;9.876;2024-03-02T00:55:37;21.50;;;16.10;;
56399;SDS011;42298;53.638;9.876;2024-03-02T00:58:03;23.38;;;16.75;;
56399;SDS011;42298;53.638;9.876;2024-03-02T01:00:28;23.17;;;15.98;;
56399;SDS011;42298;53.638;9.876;2024-03-02T01:02:54;21.45;;;15.40;;
56399;SDS011;42298;53.638;9.876;2024-03-02T01:05:19;21.00;;;15.65;;
56399;SDS011;42298;53.638;9.876;2024-03-02T01:07:45;22.70;;;15.85;;
56399;SDS011;42298;53.638;9.876;2024-03-02T01:10:10;23.95;;;16.73;;
56399;SDS011;42298;53.638;9.876;2024-03-02T01:12:36;24.33;;;15.98;;
56399;SDS011;42298;53.638;9.876;2024-03-02T01:15:01;24.48;;;17.65;;
56399;SDS011;42298;53.638;9.876;2024-03-02T01:17:29;23.35;;;17.10;;
56399;SDS011;42298;53.638;9.876;2024-03-02T01:19:54;24.95;;;17.35;;
56399;SDS011;42298;53.638;9.876;2024-03-02T01:22:19;23.92;;;17.05;;
56399;SDS011;42298;53.638;9.876;2024-03-02T01:24:50;25.83;;;17.73;;
56399;SDS011;42298;53.638;9.876;2024-03-02T01:27:15;25.13;;;17.50;;
56399;SDS011;42298;53.638;9.876;2024-03-02T01:29:40;22.73;;;17.10;;
56399;SDS011;42298;53.638;9.876;2024-03-02T01:32:06;24.75;;;17.33;;
56399;SDS011;42298;53.638;9.876;2024-03-02T01:34:31;24.63;;;18.02;;
56399;SDS011;42298;53.638;9.876;2024-03-02T01:36:56;25.30;;;16.92;;
56399;SDS011;42298;53.638;9.876;2024-03-02T01:39:22;26.40;;;17.60;;
56399;SDS011;42298;53.638;9.876;2024-03-02T01:41:47;24.52;;;16.45;;
56399;SDS011;42298;53.638;9.876;2024-03-02T01:44:13;27.20;;;19.55;;
56399;SDS011;42298;53.638;9.876;2024-03-02T01:46:38;30.88;;;19.90;;
56399;SDS011;42298;53.638;9.876;2024-03-02T01:49:03;29.27;;;20.00;;
56399;SDS011;42298;53.638;9.876;2024-03-02T01:51:29;30.50;;;21.08;;
56399;SDS011;42298;53.638;9.876;2024-03-02T01:53:54;32.00;;;22.08;;
56399;SDS011;42298;53.638;9.876;2024-03-02T01:56:20;27.58;;;19.73;;
56399;SDS011;42298;53.638;9.876;2024-03-02T01:58:45;33.30;;;21.23;;
56399;SDS011;42298;53.638;9.876;2024-03-02T02:01:11;30.17;;;21.43;;
56399;SDS011;42298;53.638;9.876;2024-03-02T02:03:36;31.98;;;22.25;;
56399;SDS011;42298;53.638;9.876;2024-03-02T02:06:02;31.30;;;22.25;;
56399;SDS011;42298;53.638;9.876;2024-03-02T02:08:27;36.08;;;25.02;;
56399;SDS011;42298;53.638;9.876;2024-03-02T02:10:52;36.22;;;25.05;;
56399;SDS011;42298;53.638;9.876;2024-03-02T02:13:18;28.40;;;20.70;;
56399;SDS011;42298;53.638;9.876;2024-03-02T02:15:43;33.30;;;24.23;;
56399;SDS011;42298;53.638;9.876;2024-03-02T02:18:08;32.72;;;23.30;;
56399;SDS011;42298;53.638;9.876;2024-03-02T02:20:34;33.65;;;23.50;;
56399;SDS011;42298;53.638;9.876;2024-03-02T02:23:00;35.55;;;25.35;;
56399;SDS011;42298;53.638;9.876;2024-03-02T02:25:26;34.85;;;25.38;;
56399;SDS011;42298;53.638;9.876;2024-03-02T02:27:52;35.13;;;24.85;;
56399;SDS011;42298;53.638;9.876;2024-03-02T02:30:21;35.77;;;24.43;;
56399;SDS011;42298;53.638;9.876;2024-03-02T02:32:51;34.17;;;24.17;;
56399;SDS011;42298;53.638;9.876;2024-03-02T02:35:17;37.95;;;25.65;;
56399;SDS011;42298;53.638;9.876;2024-03-02T02:37:43;35.30;;;25.50;;
56399;SDS011;42298;53.638;9.876;2024-03-02T02:40:09;36.43;;;26.07;;
56399;SDS011;42298;53.638;9.876;2024-03-02T02:42:35;39.17;;;26.70;;
56399;SDS011;42298;53.638;9.876;2024-03-02T02:45:00;35.77;;;25.83;;
56399;SDS011;42298;53.638;9.876;2024-03-02T02:47:25;35.57;;;26.27;;
56399;SDS011;42298;53.638;9.876;2024-03-02T02:49:51;35.17;;;25.67;;
56399;SDS011;42298;53.638;9.876;2024-03-02T02:52:16;36.63;;;26.88;;
56399;SDS011;42298;53.638;9.876;2024-03-02T02:54:42;35.13;;;26.63;;
56399;SDS011;42298;53.638;9.876;2024-03-02T02:57:07;39.47;;;26.90;;
56399;SDS011;42298;53.638;9.876;2024-03-02T02:59:33;36.50;;;26.07;;
56399;SDS011;42298;53.638;9.876;2024-03-02T03:02:00;36.57;;;25.63;;
56399;SDS011;42298;53.638;9.876;2024-03-02T03:04:26;36.25;;;25.33;;
56399;SDS011;42298;53.638;9.876;2024-03-02T03:06:51;34.67;;;25.07;;
56399;SDS011;42298;53.638;9.876;2024-03-02T03:09:16;38.92;;;27.48;;
56399;SDS011;42298;53.638;9.876;2024-03-02T03:11:42;39.50;;;28.50;;
56399;SDS011;42298;53.638;9.876;2024-03-02T03:14:07;41.03;;;29.08;;
56399;SDS011;42298;53.638;9.876;2024-03-02T03:16:32;42.67;;;28.37;;
56399;SDS011;42298;53.638;9.876;2024-03-02T03:18:58;35.88;;;25.73;;
56399;SDS011;42298;53.638;9.876;2024-03-02T03:21:23;39.30;;;27.33;;
56399;SDS011;42298;53.638;9.876;2024-03-02T03:23:48;40.00;;;26.97;;
56399;SDS011;42298;53.638;9.876;2024-03-02T03:26:14;42.13;;;28.52;;
56399;SDS011;42298;53.638;9.876;2024-03-02T03:28:39;39.47;;;27.80;;
56399;SDS011;42298;53.638;9.876;2024-03-02T03:31:04;41.10;;;27.02;;
56399;SDS011;42298;53.638;9.876;2024-03-02T03:33:29;38.50;;;27.47;;
56399;SDS011;42298;53.638;9.876;2024-03-02T03:35:55;43.57;;;32.07;;
56399;SDS011;42298;53.638;9.876;2024-03-02T03:38:20;40.35;;;29.63;;
56399;SDS011;42298;53.638;9.876;2024-03-02T03:40:45;40.50;;;28.13;;
56399;SDS011;42298;53.638;9.876;2024-03-02T03:43:11;40.05;;;27.13;;
56399;SDS011;42298;53.638;9.876;2024-03-02T03:45:36;36.65;;;26.83;;
56399;SDS011;42298;53.638;9.876;2024-03-02T03:48:02;37.83;;;26.87;;
56399;SDS011;42298;53.638;9.876;2024-03-02T03:50:28;37.50;;;27.52;;
56399;SDS011;42298;53.638;9.876;2024-03-02T03:52:53;38.57;;;27.97;;
56399;SDS011;42298;53.638;9.876;2024-03-02T03:55:18;36.55;;;27.08;;
56399;SDS011;42298;53.638;9.876;2024-03-02T03:57:44;37.67;;;26.77;;
56399;SDS011;42298;53.638;9.876;2024-03-02T04:00:09;39.63;;;27.97;;
56399;SDS011;42298;53.638;9.876;2024-03-02T04:02:35;38.13;;;27.17;;
56399;SDS011;42298;53.638;9.876;2024-03-02T04:05:01;41.20;;;28.67;;
56399;SDS011;42298;53.638;9.876;2024-03-02T04:07:29;36.17;;;25.50;;
56399;SDS011;42298;53.638;9.876;2024-03-02T04:09:55;36.43;;;26.07;;
56399;SDS011;42298;53.638;9.876;2024-03-02T04:12:20;38.23;;;27.00;;
56399;SDS011;42298;53.638;9.876;2024-03-02T04:14:46;36.87;;;26.57;;
56399;SDS011;42298;53.638;9.876;2024-03-02T04:17:11;36.70;;;26.57;;
56399;SDS011;42298;53.638;9.876;2024-03-02T04:19:37;36.43;;;24.90;;
56399;SDS011;42298;53.638;9.876;2024-03-02T04:22:02;36.10;;;24.67;;
56399;SDS011;42298;53.638;9.876;2024-03-02T04:24:28;36.83;;;26.57;;
56399;SDS011;42298;53.638;9.876;2024-03-02T04:26:53;34.70;;;25.30;;
56399;SDS011;42298;53.638;9.876;2024-03-02T04:29:18;34.43;;;24.83;;
56399;SDS011;42298;53.638;9.876;2024-03-02T04:31:44;35.63;;;26.80;;
56399;SDS011;42298;53.638;9.876;2024-03-02T04:34:09;39.07;;;27.53;;
56399;SDS011;42298;53.638;9.876;2024-03-02T04:36:35;35.60;;;25.87;;
56399;SDS011;42298;53.638;9.876;2024-03-02T04:39:01;36.30;;;25.30;;
56399;SDS011;42298;53.638;9.876;2024-03-02T04:41:27;36.77;;;25.80;;
56399;SDS011;42298;53.638;9.876;2024-03-02T04:43:52;35.30;;;25.90;;
56399;SDS011;42298;53.638;9.876;2024-03-02T04:46:18;35.10;;;25.63;;
56399;SDS011;42298;53.638;9.876;2024-03-02T04:48:43;31.80;;;24.45;;
56399;SDS011;42298;53.638;9.876;2024-03-02T04:51:09;34.33;;;24.37;;
56399;SDS011;42298;53.638;9.876;2024-03-02T04:53:35;35.47;;;26.57;;
56399;SDS011;42298;53.638;9.876;2024-03-02T04:56:00;33.47;;;25.00;;
56399;SDS011;42298;53.638;9.876;2024-03-02T04:58:44;35.97;;;24.85;;
56399;SDS011;42298;53.638;9.876;2024-03-02T05:01:09;32.25;;;22.88;;
56399;SDS011;42298;53.638;9.876;2024-03-02T05:03:35;34.28;;;24.27;;
56399;SDS011;42298;53.638;9.876;2024-03-02T05:06:01;33.73;;;23.83;;
56399;SDS011;42298;53.638;9.876;2024-03-02T05:08:26;34.60;;;25.73;;
56399;SDS011;42298;53.638;9.876;2024-03-02T05:10:51;31.50;;;22.87;;
56399;SDS011;42298;53.638;9.876;2024-03-02T05:13:16;34.53;;;24.47;;
56399;SDS011;42298;53.638;9.876;2024-03-02T05:15:42;31.17;;;23.30;;
56399;SDS011;42298;53.638;9.876;2024-03-02T05:18:08;33.10;;;23.53;;
56399;SDS011;42298;53.638;9.876;2024-03-02T05:20:33;34.83;;;25.10;;
56399;SDS011;42298;53.638;9.876;2024-03-02T05:22:59;33.03;;;23.83;;
56399;SDS011;42298;53.638;9.876;2024-03-02T05:25:25;32.43;;;23.00;;
56399;SDS011;42298;53.638;9.876;2024-03-02T05:27:50;33.23;;;23.50;;
56399;SDS011;42298;53.638;9.876;2024-03-02T05:30:15;32.23;;;24.47;;
56399;SDS011;42298;53.638;9.876;2024-03-02T05:32:41;31.42;;;23.83;;
56399;SDS011;42298;53.638;9.876;2024-03-02T05:35:06;35.23;;;25.50;;
56399;SDS011;42298;53.638;9.876;2024-03-02T05:37:32;33.13;;;24.23;;
56399;SDS011;42298;53.638;9.876;2024-03-02T05:39:58;32.17;;;23.67;;
56399;SDS011;42298;53.638;9.876;2024-03-02T05:42:24;33.20;;;24.07;;
56399;SDS011;42298;53.638;9.876;2024-03-02T05:44:49;34.30;;;23.77;;
56399;SDS011;42298;53.638;9.876;2024-03-02T05:47:15;34.57;;;24.53;;
56399;SDS011;42298;53.638;9.876;2024-03-02T05:49:40;34.57;;;25.53;;
56399;SDS011;42298;53.638;9.876;2024-03-02T05:52:06;34.73;;;25.03;;
56399;SDS011;42298;53.638;9.876;2024-03-02T05:54:31;34.27;;;24.60;;
56399;SDS011;42298;53.638;9.876;2024-03-02T05:56:57;30.73;;;22.90;;
56399;SDS011;42298;53.638;9.876;2024-03-02T05:59:40;32.47;;;23.88;;
56399;SDS011;42298;53.638;9.876;2024-03-02T06:02:06;34.57;;;23.77;;
56399;SDS011;42298;53.638;9.876;2024-03-02T06:04:31;33.47;;;23.83;;
56399;SDS011;42298;53.638;9.876;2024-03-02T06:06:56;30.67;;;22.33;;
56399;SDS011;42298;53.638;9.876;2024-03-02T06:09:22;32.25;;;22.52;;
56399;SDS011;42298;53.638;9.876;2024-03-02T06:11:49;30.77;;;22.87;;
56399;SDS011;42298;53.638;9.876;2024-03-02T06:14:15;31.55;;;22.00;;
56399;SDS011;42298;53.638;9.876;2024-03-02T06:16:41;32.60;;;26.77;;
56399;SDS011;42298;53.638;9.876;2024-03-02T06:19:07;29.77;;;22.73;;
56399;SDS011;42298;53.638;9.876;2024-03-02T06:21:32;30.33;;;22.53;;
56399;SDS011;42298;53.638;9.876;2024-03-02T06:23:57;29.90;;;22.27;;
56399;SDS011;42298;53.638;9.876;2024-03-02T06:26:23;32.73;;;24.67;;
56399;SDS011;42298;53.638;9.876;2024-03-02T06:28:48;35.43;;;24.57;;
56399;SDS011;42298;53.638;9.876;2024-03-02T06:31:13;35.27;;;24.10;;
56399;SDS011;42298;53.638;9.876;2024-03-02T06:33:39;34.13;;;24.40;;
56399;SDS011;42298;53.638;9.876;2024-03-02T06:36:05;35.97;;;26.43;;
56399;SDS011;42298;53.638;9.876;2024-03-02T06:38:34;33.17;;;23.53;;
56399;SDS011;42298;53.638;9.876;2024-03-02T06:40:59;34.27;;;23.77;;
56399;SDS011;42298;53.638;9.876;2024-03-02T06:43:25;32.33;;;25.07;;
56399;SDS011;42298;53.638;9.876;2024-03-02T06:45:50;36.93;;;25.37;;
56399;SDS011;42298;53.638;9.876;2024-03-02T06:48:16;35.77;;;24.13;;
56399;SDS011;42298;53.638;9.876;2024-03-02T06:50:45;32.50;;;23.37;;
56399;SDS011;42298;53.638;9.876;2024-03-02T06:53:11;32.10;;;23.37;;
56399;SDS011;42298;53.638;9.876;2024-03-02T06:55:37;34.03;;;24.50;;
56399;SDS011;42298;53.638;9.876;2024-03-02T06:58:02;33.40;;;24.10;;
56399;SDS011;42298;53.638;9.876;2024-03-02T07:00:28;37.77;;;24.57;;
56399;SDS011;42298;53.638;9.876;2024-03-02T07:02:54;32.43;;;22.20;;
56399;SDS011;42298;53.638;9.876;2024-03-02T07:05:19;30.53;;;21.57;;
56399;SDS011;42298;53.638;9.876;2024-03-02T07:07:46;29.83;;;21.47;;
56399;SDS011;42298;53.638;9.876;2024-03-02T07:10:11;31.00;;;22.37;;
56399;SDS011;42298;53.638;9.876;2024-03-02T07:12:36;31.70;;;21.80;;
56399;SDS011;42298;53.638;9.876;2024-03-02T07:15:02;35.67;;;25.48;;
56399;SDS011;42298;53.638;9.876;2024-03-02T07:17:28;32.77;;;23.40;;
56399;SDS011;42298;53.638;9.876;2024-03-02T07:19:57;31.93;;;23.77;;
56399;SDS011;42298;53.638;9.876;2024-03-02T07:22:23;31.83;;;22.93;;
56399;SDS011;42298;53.638;9.876;2024-03-02T07:24:48;32.50;;;22.80;;
56399;SDS011;42298;53.638;9.876;2024-03-02T07:27:14;33.13;;;23.83;;
56399;SDS011;42298;53.638;9.876;2024-03-02T07:29:41;32.23;;;23.00;;
56399;SDS011;42298;53.638;9.876;2024-03-02T07:32:06;28.43;;;20.57;;
56399;SDS011;42298;53.638;9.876;2024-03-02T07:34:33;28.90;;;22.43;;
56399;SDS011;42298;53.638;9.876;2024-03-02T07:36:58;34.00;;;23.80;;
56399;SDS011;42298;53.638;9.876;2024-03-02T07:39:24;29.40;;;23.80;;
56399;SDS011;42298;53.638;9.876;2024-03-02T07:41:50;31.80;;;22.65;;
56399;SDS011;42298;53.638;9.876;2024-03-02T07:44:15;31.88;;;22.48;;
56399;SDS011;42298;53.638;9.876;2024-03-02T07:46:41;29.13;;;21.97;;
56399;SDS011;42298;53.638;9.876;2024-03-02T07:49:07;31.03;;;21.43;;
56399;SDS011;42298;53.638;9.876;2024-03-02T07:51:33;30.38;;;21.35;;
56399;SDS011;42298;53.638;9.876;2024-03-02T07:54:00;32.57;;;22.90;;
56399;SDS011;42298;53.638;9.876;2024-03-02T07:56:25;32.40;;;21.95;;
56399;SDS011;42298;53.638;9.876;2024-03-02T07:58:51;28.97;;;21.43;;
56399;SDS011;42298;53.638;9.876;2024-03-02T08:01:16;30.85;;;22.35;;
56399;SDS011;42298;53.638;9.876;2024-03-02T08:03:42;30.67;;;21.43;;
56399;SDS011;42298;53.638;9.876;2024-03-02T08:06:08;29.08;;;23.85;;
56399;SDS011;42298;53.638;9.876;2024-03-02T08:08:33;29.87;;;22.17;;
56399;SDS011;42298;53.638;9.876;2024-03-02T08:10:58;31.70;;;20.25;;
56399;SDS011;42298;53.638;9.876;2024-03-02T08:13:24;27.70;;;20.10;;
56399;SDS011;42298;53.638;9.876;2024-03-02T08:15:49;28.67;;;20.83;;
56399;SDS011;42298;53.638;9.876;2024-03-02T08:18:14;30.20;;;22.45;;
56399;SDS011;42298;53.638;9.876;2024-03-02T08:20:40;28.67;;;20.17;;
56399;SDS011;42298;53.638;9.876;2024-03-02T08:23:05;30.97;;;21.83;;
56399;SDS011;42298;53.638;9.876;2024-03-02T08:25:31;29.85;;;21.30;;
56399;SDS011;42298;53.638;9.876;2024-03-02T08:27:57;30.63;;;21.25;;
56399;SDS011;42298;53.638;9.876;2024-03-02T08:30:22;29.73;;;21.70;;
56399;SDS011;42298;53.638;9.876;2024-03-02T08:32:48;30.27;;;21.42;;
56399;SDS011;42298;53.638;9.876;2024-03-02T08:35:13;29.70;;;21.77;;
56399;SDS011;42298;53.638;9.876;2024-03-02T08:37:39;26.00;;;20.40;;
56399;SDS011;42298;53.638;9.876;2024-03-02T08:40:07;29.77;;;21.07;;
56399;SDS011;42298;53.638;9.876;2024-03-02T08:42:33;29.30;;;20.98;;
56399;SDS011;42298;53.638;9.876;2024-03-02T08:44:58;26.60;;;19.85;;
56399;SDS011;42298;53.638;9.876;2024-03-02T08:47:26;29.17;;;20.57;;
56399;SDS011;42298;53.638;9.876;2024-03-02T08:49:52;27.63;;;22.90;;
56399;SDS011;42298;53.638;9.876;2024-03-02T08:52:17;28.80;;;22.33;;
56399;SDS011;42298;53.638;9.876;2024-03-02T08:54:42;29.55;;;21.15;;
56399;SDS011;42298;53.638;9.876;2024-03-02T08:57:14;29.35;;;21.70;;
56399;SDS011;42298;53.638;9.876;2024-03-02T08:59:40;31.07;;;21.87;;
56399;SDS011;42298;53.638;9.876;2024-03-02T09:02:11;26.90;;;19.80;;
56399;SDS011;42298;53.638;9.876;2024-03-02T09:04:36;27.23;;;20.17;;
56399;SDS011;42298;53.638;9.876;2024-03-02T09:07:06;28.17;;;22.80;;
56399;SDS011;42298;53.638;9.876;2024-03-02T09:09:34;27.23;;;21.40;;
56399;SDS011;42298;53.638;9.876;2024-03-02T09:12:00;29.48;;;20.13;;
56399;SDS011;42298;53.638;9.876;2024-03-02T09:14:25;26.35;;;19.85;;
56399;SDS011;42298;53.638;9.876;2024-03-02T09:17:03;26.55;;;19.83;;
56399;SDS011;42298;53.638;9.876;2024-03-02T09:19:38;28.52;;;19.67;;
56399;SDS011;42298;53.638;9.876;2024-03-02T09:22:13;25.42;;;19.50;;
56399;SDS011;42298;53.638;9.876;2024-03-02T09:24:47;27.25;;;20.40;;
56399;SDS011;42298;53.638;9.876;2024-03-02T09:27:15;25.42;;;18.58;;
56399;SDS011;42298;53.638;9.876;2024-03-02T09:29:40;25.23;;;18.67;;
56399;SDS011;42298;53.638;9.876;2024-03-02T09:32:12;24.77;;;18.33;;
56399;SDS011;42298;53.638;9.876;2024-03-02T09:34:40;26.73;;;19.02;;
56399;SDS011;42298;53.638;9.876;2024-03-02T09:37:09;28.15;;;19.58;;
56399;SDS011;42298;53.638;9.876;2024-03-02T09:39:34;28.25;;;19.00;;
56399;SDS011;42298;53.638;9.876;2024-03-02T09:41:59;24.58;;;18.88;;
56399;SDS011;42298;53.638;9.876;2024-03-02T09:44:37;27.15;;;19.08;;
56399;SDS011;42298;53.638;9.876;2024-03-02T09:47:02;25.65;;;18.70;;
56399;SDS011;42298;53.638;9.876;2024-03-02T09:49:31;26.50;;;17.75;;
56399;SDS011;42298;53.638;9.876;2024-03-02T09:51:57;26.15;;;18.95;;
56399;SDS011;42298;53.638;9.876;2024-03-02T09:54:25;25.55;;;18.42;;
56399;SDS011;42298;53.638;9.876;2024-03-02T09:56:51;23.60;;;17.17;;
56399;SDS011;42298;53.638;9.876;2024-03-02T09:59:16;24.42;;;17.55;;
56399;SDS011;42298;53.638;9.876;2024-03-02T10:02:00;24.52;;;18.80;;
56399;SDS011;42298;53.638;9.876;2024-03-02T10:04:27;24.23;;;17.85;;
56399;SDS011;42298;53.638;9.876;2024-03-02T10:09:40;25.70;;;17.13;;
56399;SDS011;42298;53.638;9.876;2024-03-02T10:12:13;24.90;;;16.58;;
56399;SDS011;42298;53.638;9.876;2024-03-02T10:14:40;24.38;;;17.58;;
56399;SDS011;42298;53.638;9.876;2024-03-02T10:17:07;25.27;;;17.20;;
56399;SDS011;42298;53.638;9.876;2024-03-02T10:19:41;26.08;;;17.67;;
56399;SDS011;42298;53.638;9.876;2024-03-02T10:22:09;23.10;;;17.50;;
56399;SDS011;42298;53.638;9.876;2024-03-02T10:24:42;23.00;;;17.88;;
56399;SDS011;42298;53.638;9.876;2024-03-02T10:27:18;23.60;;;16.02;;
56399;SDS011;42298;53.638;9.876;2024-03-02T10:29:47;22.02;;;15.23;;
56399;SDS011;42298;53.638;9.876;2024-03-02T10:32:14;21.48;;;15.63;;
56399;SDS011;42298;53.638;9.876;2024-03-02T10:34:40;21.13;;;15.02;;
56399;SDS011;42298;53.638;9.876;2024-03-02T10:37:06;22.85;;;15.88;;
56399;SDS011;42298;53.638;9.876;2024-03-02T10:39:32;21.70;;;15.35;;
56399;SDS011;42298;53.638;9.876;2024-03-02T10:42:00;21.73;;;13.98;;
56399;SDS011;42298;53.638;9.876;2024-03-02T10:44:28;22.27;;;15.70;;
56399;SDS011;42298;53.638;9.876;2024-03-02T10:46:53;21.02;;;15.55;;
56399;SDS011;42298;53.638;9.876;2024-03-02T10:49:20;21.65;;;15.05;;
56399;SDS011;42298;53.638;9.876;2024-03-02T10:51:48;23.40;;;16.03;;
56399;SDS011;42298;53.638;9.876;2024-03-02T10:54:14;20.48;;;15.10;;
56399;SDS011;42298;53.638;9.876;2024-03-02T10:56:40;21.27;;;15.55;;
56399;SDS011;42298;53.638;9.876;2024-03-02T10:59:17;21.60;;;15.35;;
56399;SDS011;42298;53.638;9.876;2024-03-02T11:01:59;21.95;;;13.75;;
56399;SDS011;42298;53.638;9.876;2024-03-02T11:04:26;20.80;;;14.50;;
56399;SDS011;42298;53.638;9.876;2024-03-02T11:07:26;20.38;;;13.65;;
56399;SDS011;42298;53.638;9.876;2024-03-02T11:10:04;20.10;;;13.50;;
56399;SDS011;42298;53.638;9.876;2024-03-02T11:12:36;20.00;;;13.80;;
56399;SDS011;42298;53.638;9.876;2024-03-02T11:15:10;19.30;;;13.00;;
56399;SDS011;42298;53.638;9.876;2024-03-02T11:17:37;21.50;;;13.98;;
56399;SDS011;42298;53.638;9.876;2024-03-02T11:20:05;19.23;;;12.70;;
56399;SDS011;42298;53.638;9.876;2024-03-02T11:22:34;19.48;;;13.27;;
56399;SDS011;42298;53.638;9.876;2024-03-02T11:25:01;19.25;;;14.40;;
56399;SDS011;42298;53.638;9.876;2024-03-02T11:30:55;17.95;;;12.23;;
56399;SDS011;42298;53.638;9.876;2024-03-02T11:35:37;17.70;;;11.70;;
56399;SDS011;42298;53.638;9.876;2024-03-02T11:38:07;19.63;;;11.63;;
56399;SDS011;42298;53.638;9.876;2024-03-02T11:40:34;15.82;;;10.10;;
56399;SDS011;42298;53.638;9.876;2024-03-02T11:43:00;15.15;;;9.25;;
56399;SDS011;42298;53.638;9.876;2024-03-02T11:45:26;14.85;;;9.27;;
56399;SDS011;42298;53.638;9.876;2024-03-02T11:47:55;16.73;;;10.57;;
56399;SDS011;42298;53.638;9.876;2024-03-02T11:50:41;16.85;;;10.52;;
56399;SDS011;42298;53.638;9.876;2024-03-02T11:53:08;15.40;;;11.32;;
56399;SDS011;42298;53.638;9.876;2024-03-02T11:55:35;15.80;;;10.48;;
56399;SDS011;42298;53.638;9.876;2024-03-02T11:58:04;16.00;;;10.65;;
56399;SDS011;42298;53.638;9.876;2024-03-02T12:00:29;15.73;;;9.98;;
56399;SDS011;42298;53.638;9.876;2024-03-02T12:05:28;15.23;;;9.32;;
56399;SDS011;42298;53.638;9.876;2024-03-02T12:07:58;16.52;;;9.93;;
56399;SDS011;42298;53.638;9.876;2024-03-02T12:10:25;14.88;;;9.43;;
56399;SDS011;42298;53.638;9.876;2024-03-02T12:13:00;16.25;;;10.80;;
56399;SDS011;42298;53.638;9.876;2024-03-02T12:15:29;18.55;;;10.73;;
56399;SDS011;42298;53.638;9.876;2024-03-02T12:17:56;17.13;;;9.63;;
56399;SDS011;42298;53.638;9.876;2024-03-02T12:20:23;16.45;;;10.10;;
56399;SDS011;42298;53.638;9.876;2024-03-02T12:22:52;15.73;;;11.45;;
56399;SDS011;42298;53.638;9.876;2024-03-02T12:25:22;14.85;;;10.15;;
56399;SDS011;42298;53.638;9.876;2024-03-02T12:27:49;15.23;;;9.43;;
56399;SDS011;42298;53.638;9.876;2024-03-02T12:30:19;16.73;;;10.98;;
56399;SDS011;42298;53.638;9.876;2024-03-02T12:32:45;15.80;;;9.20;;
56399;SDS011;42298;53.638;9.876;2024-03-02T12:35:12;15.30;;;9.38;;
56399;SDS011;42298;53.638;9.876;2024-03-02T12:37:43;14.75;;;9.55;;
56399;SDS011;42298;53.638;9.876;2024-03-02T12:40:13;15.30;;;9.52;;
56399;SDS011;42298;53.638;9.876;2024-03-02T12:42:39;14.98;;;9.20;;
56399;SDS011;42298;53.638;9.876;2024-03-02T12:45:06;16.15;;;9.93;;
56399;SDS011;42298;53.638;9.876;2024-03-02T12:47:35;15.65;;;9.00;;
56399;SDS011;42298;53.638;9.876;2024-03-02T12:50:02;15.48;;;9.63;;
56399;SDS011;42298;53.638;9.876;2024-03-02T12:52:29;15.85;;;9.38;;
56399;SDS011;42298;53.638;9.876;2024-03-02T12:54:55;16.52;;;9.43;;
56399;SDS011;42298;53.638;9.876;2024-03-02T12:57:27;15.63;;;8.52;;
56399;SDS011;42298;53.638;9.876;2024-03-02T12:59:58;15.30;;;8.88;;
56399;SDS011;42298;53.638;9.876;2024-03-02T13:02:27;16.65;;;8.52;;
56399;SDS011;42298;53.638;9.876;2024-03-02T13:04:56;13.23;;;7.90;;
56399;SDS011;42298;53.638;9.876;2024-03-02T13:07:25;14.00;;;8.65;;
56399;SDS011;42298;53.638;9.876;2024-03-02T13:09:51;15.13;;;8.52;;
56399;SDS011;42298;53.638;9.876;2024-03-02T13:12:17;14.77;;;8.40;;
56399;SDS011;42298;53.638;9.876;2024-03-02T13:14:44;13.68;;;7.90;;
56399;SDS011;42298;53.638;9.876;2024-03-02T13:17:09;15.20;;;8.38;;
56399;SDS011;42298;53.638;9.876;2024-03-02T13:19:34;13.57;;;7.88;;
56399;SDS011;42298;53.638;9.876;2024-03-02T13:22:00;13.43;;;7.80;;
56399;SDS011;42298;53.638;9.876;2024-03-02T13:24:28;12.00;;;7.07;;
56399;SDS011;42298;53.638;9.876;2024-03-02T13:26:54;15.30;;;7.72;;
56399;SDS011;42298;53.638;9.876;2024-03-02T13:29:22;11.70;;;7.00;;
56399;SDS011;42298;53.638;9.876;2024-03-02T13:31:47;11.98;;;7.35;;
56399;SDS011;42298;53.638;9.876;2024-03-02T13:34:13;12.80;;;8.10;;
56399;SDS011;42298;53.638;9.876;2024-03-02T13:36:38;14.55;;;8.18;;
56399;SDS011;42298;53.638;9.876;2024-03-02T13:39:04;14.35;;;7.70;;
56399;SDS011;42298;53.638;9.876;2024-03-02T13:41:35;13.57;;;8.35;;
56399;SDS011;42298;53.638;9.876;2024-03-02T13:44:00;14.68;;;8.43;;
56399;SDS011;42298;53.638;9.876;2024-03-02T13:46:26;12.93;;;7.40;;
56399;SDS011;42298;53.638;9.876;2024-03-02T13:48:52;12.00;;;6.85;;
56399;SDS011;42298;53.638;9.876;2024-03-02T13:51:18;14.20;;;7.75;;
56399;SDS011;42298;53.638;9.876;2024-03-02T13:53:43;14.38;;;8.52;;
56399;SDS011;42298;53.638;9.876;2024-03-02T13:56:08;14.50;;;8.27;;
56399;SDS011;42298;53.638;9.876;2024-03-02T13:58:34;17.38;;;9.10;;
56399;SDS011;42298;53.638;9.876;2024-03-02T14:00:59;13.50;;;7.38;;
56399;SDS011;42298;53.638;9.876;2024-03-02T14:03:26;11.48;;;7.35;;
56399;SDS011;42298;53.638;9.876;2024-03-02T14:05:52;12.77;;;7.57;;
56399;SDS011;42298;53.638;9.876;2024-03-02T14:08:18;13.45;;;7.85;;
56399;SDS011;42298;53.638;9.876;2024-03-02T14:10:43;13.90;;;7.95;;
56399;SDS011;42298;53.638;9.876;2024-03-02T14:13:08;16.17;;;9.05;;
56399;SDS011;42298;53.638;9.876;2024-03-02T14:15:34;16.13;;;8.88;;
56399;SDS011;42298;53.638;9.876;2024-03-02T14:18:03;16.30;;;9.88;;
56399;SDS011;42298;53.638;9.876;2024-03-02T14:20:29;13.23;;;8.10;;
56399;SDS011;42298;53.638;9.876;2024-03-02T14:22:54;15.38;;;9.60;;
56399;SDS011;42298;53.638;9.876;2024-03-02T14:25:20;13.77;;;8.52;;
56399;SDS011;42298;53.638;9.876;2024-03-02T14:27:45;16.25;;;9.70;;
56399;SDS011;42298;53.638;9.876;2024-03-02T14:30:11;14.70;;;9.30;;
56399;SDS011;42298;53.638;9.876;2024-03-02T14:32:37;16.30;;;9.65;;
56399;SDS011;42298;53.638;9.876;2024-03-02T14:35:02;14.90;;;9.15;;